Bluefin — WDE9397 — position and weather

sailwx.info

Track history (hours):
 
Tides and Currents Weather Stations Pressure Air Temp Water Temp Dewpoint Dewpoint Depression Visibility Wind Speed Wind Dir Waves Ship Positions

Bluefin

Owner: Penn Maritime Inc., SEATTLE, WA. More information available from US FCC via Universal Licensing System and Coast Guard Vessel Documentation Center.

Last reported at 2015-Mar-02 01:24 UTC. Time now 2015-Mar-02 11:12 UTC.
Position N 40°29' W 074°07'.

Length 166 m; draft 7 m.

Type: Towing. MMSI: 367416750.

Date/timePositionNaut miles runAvg speedWind from/ knotsBaromVisibWave heightAir tempDewpointWater temp
2015-Mar-02 01:24N 40°29' W 074°07'0 0.1
2015-Mar-01 23:26N 40°29' W 074°07'0 0.0
2015-Mar-01 21:16N 40°29' W 074°07'0 0.0
2015-Mar-01 18:34N 40°29' W 074°07'0 0.1
2015-Mar-01 17:34N 40°29' W 074°07'0 0.0
2015-Mar-01 16:27N 40°29' W 074°07'0 0.0
2015-Mar-01 15:22N 40°29' W 074°07'0 0.0
2015-Mar-01 14:33N 40°29' W 074°07'0 0.0
2015-Mar-01 13:23N 40°29' W 074°07'0 0.0
2015-Mar-01 12:34N 40°29' W 074°07'0 0.0
2015-Mar-01 11:33N 40°29' W 074°07'0 0.0
2015-Mar-01 10:34N 40°29' W 074°07'0 0.0
2015-Mar-01 09:33N 40°29' W 074°07'0 0.0
2015-Mar-01 08:34N 40°29' W 074°07'0 0.1
2015-Mar-01 07:33N 40°29' W 074°07'0 0.0
2015-Mar-01 04:10N 40°29' W 074°07'0 0.0
2015-Mar-01 00:32N 40°29' W 074°07'0 0.0
2015-Feb-28 23:33N 40°29' W 074°07'0 0.0
2015-Feb-28 22:23N 40°29' W 074°07'0 0.0
2015-Feb-28 21:29N 40°29' W 074°07'0 0.0
2015-Feb-28 20:19N 40°29' W 074°07'0 0.1
2015-Feb-28 19:26N 40°29' W 074°07'33 8.4
2015-Feb-28 15:30N 39°58' W 073°56'1010.2
2015-Feb-28 14:33N 39°48' W 073°58'1010.0
2015-Feb-28 13:33N 39°39' W 074°02'1110.1
2015-Feb-28 12:29N 39°29' W 074°09'910.0
2015-Feb-28 11:33N 39°21' W 074°15'2210.0
2015-Feb-28 09:21N 39°05' W 074°34'1810.0
2015-Feb-28 07:33N 38°51' W 074°49'9 9.4
2015-Feb-28 06:33N 38°48' W 075°01'10 9.6
2015-Feb-28 05:33N 38°57' W 075°06'1110.7
2015-Feb-28 04:34N 39°06' W 075°12'1212.3
2015-Feb-28 03:33N 39°17' W 075°21'1212.4
2015-Feb-28 02:33N 39°26' W 075°32'1110.7
2015-Feb-28 01:33N 39°36' W 075°34'7 7.2
2015-Feb-28 00:33N 39°43' W 075°31'0 0.0
2015-Feb-27 23:31N 39°43' W 075°31'0 0.0
2015-Feb-27 22:31N 39°43' W 075°31'0 0.0
2015-Feb-27 21:31N 39°43' W 075°31'0 0.0
2015-Feb-27 20:31N 39°43' W 075°31'0 0.0
2015-Feb-27 19:31N 39°43' W 075°31'0 0.0
2015-Feb-27 18:31N 39°43' W 075°31'0 0.0
2015-Feb-27 17:31N 39°43' W 075°31'0 0.0
2015-Feb-27 16:31N 39°43' W 075°31'0 0.0
2015-Feb-27 15:31N 39°43' W 075°31'0 0.0
2015-Feb-27 14:33N 39°43' W 075°31'1 0.6
2015-Feb-27 13:33N 39°43' W 075°30'0 0.1
2015-Feb-27 12:33N 39°43' W 075°30'0 0.0
2015-Feb-27 11:33N 39°43' W 075°30'0 0.0
2015-Feb-27 10:33N 39°43' W 075°30'0 0.0
2015-Feb-27 09:33N 39°43' W 075°30'0 0.0
2015-Feb-27 08:33N 39°43' W 075°30'4 4.5
2015-Feb-27 07:33N 39°47' W 075°28'4 3.5
2015-Feb-27 06:32N 39°49' W 075°24'0 0.0
2015-Feb-27 05:32N 39°49' W 075°24'0 0.0
2015-Feb-27 04:32N 39°49' W 075°24'0 0.0
2015-Feb-27 03:32N 39°49' W 075°24'0 0.0
2015-Feb-27 02:32N 39°49' W 075°24'0 0.2
2015-Feb-27 01:32N 39°49' W 075°24'0 0.0
2015-Feb-27 00:32N 39°49' W 075°24'0 0.0
2015-Feb-26 23:32N 39°49' W 075°24'0 0.0
2015-Feb-26 22:32N 39°49' W 075°24'0 0.0
2015-Feb-26 21:32N 39°49' W 075°24'0 0.1
2015-Feb-26 20:32N 39°49' W 075°24'0 0.2
2015-Feb-26 19:32N 39°49' W 075°24'0 0.0
2015-Feb-26 18:32N 39°49' W 075°24'0 0.1
2015-Feb-26 17:32N 39°49' W 075°24'0 0.0
2015-Feb-26 16:32N 39°49' W 075°24'0 0.0
2015-Feb-26 15:32N 39°49' W 075°24'0 0.0
2015-Feb-26 14:32N 39°49' W 075°24'0 0.0
2015-Feb-26 13:32N 39°49' W 075°24'0 0.1
2015-Feb-26 12:33N 39°49' W 075°24'1 0.8
2015-Feb-26 11:31N 39°49' W 075°23'3 2.8
2015-Feb-26 10:33N 39°51' W 075°20'4 3.7
2015-Feb-26 09:31N 39°51' W 075°15'2 1.9
2015-Feb-26 08:31N 39°52' W 075°13'2 2.0
2015-Feb-26 07:31N 39°53' W 075°11'0 0.0
2015-Feb-26 05:31N 39°53' W 075°11'0 0.0
2015-Feb-26 04:31N 39°53' W 075°11'0 0.0
2015-Feb-26 03:22N 39°53' W 075°11'0 0.0
2015-Feb-26 02:31N 39°53' W 075°11'0 0.0
2015-Feb-26 01:31N 39°53' W 075°11'0 0.0
2015-Feb-26 00:31N 39°53' W 075°11'0 0.0
2015-Feb-25 23:31N 39°53' W 075°11'0 0.0
2015-Feb-25 22:31N 39°53' W 075°11'0 0.0
2015-Feb-25 21:31N 39°53' W 075°11'0 0.0
2015-Feb-25 20:31N 39°53' W 075°11'0 0.0
2015-Feb-25 19:31N 39°53' W 075°11'0 0.0
2015-Feb-25 18:31N 39°53' W 075°11'0 0.0
2015-Feb-25 17:31N 39°53' W 075°11'0 0.0
2015-Feb-25 16:31N 39°53' W 075°11'0 0.0
2015-Feb-25 15:28N 39°53' W 075°11'0 0.0
2015-Feb-25 14:31N 39°53' W 075°11'0 0.0
2015-Feb-25 13:31N 39°53' W 075°11'0 0.0
2015-Feb-25 12:31N 39°53' W 075°11'4 4.3
2015-Feb-25 11:34N 39°51' W 075°15'8 8.5
2015-Feb-25 10:33N 39°48' W 075°26'9 8.7
2015-Feb-25 09:34N 39°40' W 075°32'7 7.1
2015-Feb-25 08:34N 39°33' W 075°33'0 0.2
2015-Feb-25 07:32N 39°33' W 075°33'0 0.1
2015-Feb-25 06:32N 39°33' W 075°33'0 0.0
2015-Feb-25 05:32N 39°33' W 075°33'0 0.1
2015-Feb-25 04:32N 39°33' W 075°33'0 0.0
2015-Feb-25 03:32N 39°33' W 075°33'0 0.0
2015-Feb-25 02:32N 39°33' W 075°33'0 0.0
2015-Feb-25 01:32N 39°33' W 075°33'0 0.0
2015-Feb-25 00:32N 39°33' W 075°33'0 0.1
2015-Feb-24 23:32N 39°33' W 075°33'0 0.1
2015-Feb-24 22:33N 39°33' W 075°33'0 0.1
2015-Feb-24 21:32N 39°33' W 075°33'0 0.0
2015-Feb-24 20:32N 39°33' W 075°33'0 0.0
2015-Feb-24 19:32N 39°33' W 075°33'0 0.0
2015-Feb-24 18:32N 39°33' W 075°33'0 0.0
2015-Feb-24 17:33N 39°33' W 075°33'0 0.2
2015-Feb-24 16:32N 39°33' W 075°33'0 0.1
2015-Feb-24 15:32N 39°33' W 075°33'0 0.2
2015-Feb-24 14:33N 39°33' W 075°33'0 0.2
2015-Feb-24 13:33N 39°33' W 075°33'0 0.0
2015-Feb-24 12:33N 39°33' W 075°33'0 0.0
2015-Feb-24 11:33N 39°33' W 075°33'0 0.1
2015-Feb-24 10:30N 39°33' W 075°33'0 0.2
2015-Feb-24 09:33N 39°33' W 075°33'0 0.0
2015-Feb-24 08:33N 39°33' W 075°33'0 0.0
2015-Feb-24 07:33N 39°33' W 075°33'0 0.0
2015-Feb-24 06:33N 39°33' W 075°33'0 0.0
2015-Feb-24 05:33N 39°33' W 075°33'0 0.1
2015-Feb-24 04:33N 39°33' W 075°33'0 0.1
2015-Feb-24 03:33N 39°33' W 075°33'0 0.0
2015-Feb-24 02:33N 39°33' W 075°33'0 0.0
2015-Feb-24 01:33N 39°33' W 075°33'0 0.0
2015-Feb-24 00:33N 39°33' W 075°33'0 0.0
2015-Feb-23 23:30N 39°33' W 075°33'0 0.0
2015-Feb-23 22:33N 39°33' W 075°33'0 0.0
2015-Feb-23 21:33N 39°33' W 075°33'1 0.7
2015-Feb-23 20:33N 39°34' W 075°33'8 8.2
2015-Feb-23 19:33N 39°42' W 075°31'9 8.5
2015-Feb-23 18:33N 39°49' W 075°24'8 8.4
2015-Feb-23 17:33N 39°51' W 075°14'0 0.0
2015-Feb-23 16:33N 39°51' W 075°14'3 3.0
2015-Feb-23 15:34N 39°53' W 075°11'0 0.1
2015-Feb-23 14:33N 39°53' W 075°11'0 0.3
2015-Feb-23 13:33N 39°53' W 075°11'3 2.8
2015-Feb-23 12:33N 39°51' W 075°14'0 0.0
2015-Feb-23 11:33N 39°51' W 075°14'0 0.0
2015-Feb-23 10:33N 39°51' W 075°14'0 0.0
2015-Feb-23 09:33N 39°51' W 075°14'0 0.0
2015-Feb-23 08:33N 39°51' W 075°14'0 0.0
2015-Feb-23 07:33N 39°51' W 075°14'0 0.0
2015-Feb-23 06:34N 39°51' W 075°14'0 0.0
2015-Feb-23 05:33N 39°51' W 075°14'0 0.0
2015-Feb-23 04:33N 39°51' W 075°14'0 0.0
2015-Feb-23 03:33N 39°51' W 075°14'0 0.0
2015-Feb-23 02:33N 39°51' W 075°14'0 0.0
2015-Feb-23 01:33N 39°51' W 075°14'0 0.0
2015-Feb-23 00:34N 39°51' W 075°14'0 0.0
2015-Feb-22 23:33N 39°51' W 075°14'0 0.0
2015-Feb-22 22:33N 39°51' W 075°14'0 0.0
2015-Feb-22 21:33N 39°51' W 075°14'2 2.1
2015-Feb-22 20:33N 39°51' W 075°16'1010.0
2015-Feb-22 19:33N 39°46' W 075°28'1110.9
2015-Feb-22 18:34N 39°37' W 075°35'1110.9
2015-Feb-22 17:33N 39°26' W 075°32'1211.9
2015-Feb-22 16:33N 39°17' W 075°22'1111.4
2015-Feb-22 15:33N 39°08' W 075°13'1111.1
2015-Feb-22 14:33N 38°58' W 075°07'79 3.6
2015-Feb-21 16:33N 37°58' W 076°12'9 9.4
2015-Feb-21 15:33N 38°07' W 076°15'44 8.9
2015-Feb-21 10:33N 38°51' W 076°26'8 8.2
2015-Feb-21 09:32N 38°59' W 076°23'7 7.6
2015-Feb-21 08:33N 39°06' W 076°24'8 8.0
2015-Feb-21 07:33N 39°12' W 076°31'5 5.0
2015-Feb-21 06:33N 39°16' W 076°34'0 0.0
2015-Feb-21 05:33N 39°16' W 076°34'0 0.0
2015-Feb-21 04:33N 39°16' W 076°34'0 0.0
2015-Feb-21 03:34N 39°16' W 076°34'0 0.0
2015-Feb-21 02:33N 39°16' W 076°34'0 0.0
2015-Feb-21 01:33N 39°16' W 076°34'0 0.0
2015-Feb-21 00:33N 39°16' W 076°34'0 0.0
2015-Feb-20 23:33N 39°16' W 076°34'0 0.0
2015-Feb-20 22:33N 39°16' W 076°34'0 0.0
2015-Feb-20 21:33N 39°16' W 076°34'0 0.0
2015-Feb-20 20:33N 39°16' W 076°34'0 0.0
2015-Feb-20 19:33N 39°16' W 076°34'0 0.0
2015-Feb-20 18:33N 39°16' W 076°34'0 0.0
2015-Feb-20 17:31N 39°16' W 076°34'0 0.0
2015-Feb-20 16:33N 39°16' W 076°34'1 1.1
2015-Feb-20 15:33N 39°17' W 076°36'0 0.0
2015-Feb-20 14:33N 39°17' W 076°36'0 0.0
2015-Feb-20 13:33N 39°17' W 076°36'0 0.0
2015-Feb-20 12:33N 39°17' W 076°36'1 1.1
2015-Feb-20 11:33N 39°16' W 076°34'0 0.0
2015-Feb-20 10:34N 39°16' W 076°34'0 0.0
2015-Feb-20 09:33N 39°16' W 076°34'0 0.0
2015-Feb-20 08:34N 39°16' W 076°34'0 0.0
2015-Feb-20 07:33N 39°16' W 076°34'0 0.0
2015-Feb-20 06:33N 39°16' W 076°34'0 0.0
2015-Feb-20 05:34N 39°16' W 076°34'0 0.0
2015-Feb-20 04:33N 39°16' W 076°34'0 0.0
2015-Feb-20 03:33N 39°16' W 076°34'0 0.0
2015-Feb-20 02:33N 39°16' W 076°34'0 0.0
2015-Feb-20 01:33N 39°16' W 076°34'  
Track history (hours):
 
Tides and Currents Weather Stations Pressure Air Temp Water Temp Dewpoint Dewpoint Depression Visibility Wind Speed Wind Dir Waves Ship Positions

Bluefin

Owner: Penn Maritime Inc., SEATTLE, WA. More information available from US FCC via Universal Licensing System and Coast Guard Vessel Documentation Center.

Last reported at 2015-Mar-02 01:24 UTC. Time now 2015-Mar-02 11:12 UTC.
Position N 40°29' W 074°07'.

Length 166 m; draft 7 m.

Type: Towing. MMSI: 367416750.

Date/timePositionNaut miles runAvg speedWind from/ knotsBaromVisibWave heightAir tempDewpointWater temp
2015-Mar-02 01:24N 40°29' W 074°07'0 0.1
2015-Mar-01 23:26N 40°29' W 074°07'0 0.0
2015-Mar-01 21:16N 40°29' W 074°07'0 0.0
2015-Mar-01 18:34N 40°29' W 074°07'0 0.1
2015-Mar-01 17:34N 40°29' W 074°07'0 0.0
2015-Mar-01 16:27N 40°29' W 074°07'0 0.0
2015-Mar-01 15:22N 40°29' W 074°07'0 0.0
2015-Mar-01 14:33N 40°29' W 074°07'0 0.0
2015-Mar-01 13:23N 40°29' W 074°07'0 0.0
2015-Mar-01 12:34N 40°29' W 074°07'0 0.0
2015-Mar-01 11:33N 40°29' W 074°07'0 0.0
2015-Mar-01 10:34N 40°29' W 074°07'0 0.0
2015-Mar-01 09:33N 40°29' W 074°07'0 0.0
2015-Mar-01 08:34N 40°29' W 074°07'0 0.1
2015-Mar-01 07:33N 40°29' W 074°07'0 0.0
2015-Mar-01 04:10N 40°29' W 074°07'0 0.0
2015-Mar-01 00:32N 40°29' W 074°07'0 0.0
2015-Feb-28 23:33N 40°29' W 074°07'0 0.0
2015-Feb-28 22:23N 40°29' W 074°07'0 0.0
2015-Feb-28 21:29N 40°29' W 074°07'0 0.0
2015-Feb-28 20:19N 40°29' W 074°07'0 0.1
2015-Feb-28 19:26N 40°29' W 074°07'33 8.4
2015-Feb-28 15:30N 39°58' W 073°56'1010.2
2015-Feb-28 14:33N 39°48' W 073°58'1010.0
2015-Feb-28 13:33N 39°39' W 074°02'1110.1
2015-Feb-28 12:29N 39°29' W 074°09'910.0
2015-Feb-28 11:33N 39°21' W 074°15'2210.0
2015-Feb-28 09:21N 39°05' W 074°34'1810.0
2015-Feb-28 07:33N 38°51' W 074°49'9 9.4
2015-Feb-28 06:33N 38°48' W 075°01'10 9.6
2015-Feb-28 05:33N 38°57' W 075°06'1110.7
2015-Feb-28 04:34N 39°06' W 075°12'1212.3
2015-Feb-28 03:33N 39°17' W 075°21'1212.4
2015-Feb-28 02:33N 39°26' W 075°32'1110.7
2015-Feb-28 01:33N 39°36' W 075°34'7 7.2
2015-Feb-28 00:33N 39°43' W 075°31'0 0.0
2015-Feb-27 23:31N 39°43' W 075°31'0 0.0
2015-Feb-27 22:31N 39°43' W 075°31'0 0.0
2015-Feb-27 21:31N 39°43' W 075°31'0 0.0
2015-Feb-27 20:31N 39°43' W 075°31'0 0.0
2015-Feb-27 19:31N 39°43' W 075°31'0 0.0
2015-Feb-27 18:31N 39°43' W 075°31'0 0.0
2015-Feb-27 17:31N 39°43' W 075°31'0 0.0
2015-Feb-27 16:31N 39°43' W 075°31'0 0.0
2015-Feb-27 15:31N 39°43' W 075°31'0 0.0
2015-Feb-27 14:33N 39°43' W 075°31'1 0.6
2015-Feb-27 13:33N 39°43' W 075°30'0 0.1
2015-Feb-27 12:33N 39°43' W 075°30'0 0.0
2015-Feb-27 11:33N 39°43' W 075°30'0 0.0
2015-Feb-27 10:33N 39°43' W 075°30'0 0.0
2015-Feb-27 09:33N 39°43' W 075°30'0 0.0
2015-Feb-27 08:33N 39°43' W 075°30'4 4.5
2015-Feb-27 07:33N 39°47' W 075°28'4 3.5
2015-Feb-27 06:32N 39°49' W 075°24'0 0.0
2015-Feb-27 05:32N 39°49' W 075°24'0 0.0
2015-Feb-27 04:32N 39°49' W 075°24'0 0.0
2015-Feb-27 03:32N 39°49' W 075°24'0 0.0
2015-Feb-27 02:32N 39°49' W 075°24'0 0.2
2015-Feb-27 01:32N 39°49' W 075°24'0 0.0
2015-Feb-27 00:32N 39°49' W 075°24'0 0.0
2015-Feb-26 23:32N 39°49' W 075°24'0 0.0
2015-Feb-26 22:32N 39°49' W 075°24'0 0.0
2015-Feb-26 21:32N 39°49' W 075°24'0 0.1
2015-Feb-26 20:32N 39°49' W 075°24'0 0.2
2015-Feb-26 19:32N 39°49' W 075°24'0 0.0
2015-Feb-26 18:32N 39°49' W 075°24'0 0.1
2015-Feb-26 17:32N 39°49' W 075°24'0 0.0
2015-Feb-26 16:32N 39°49' W 075°24'0 0.0
2015-Feb-26 15:32N 39°49' W 075°24'0 0.0
2015-Feb-26 14:32N 39°49' W 075°24'0 0.0
2015-Feb-26 13:32N 39°49' W 075°24'0 0.1
2015-Feb-26 12:33N 39°49' W 075°24'1 0.8
2015-Feb-26 11:31N 39°49' W 075°23'3 2.8
2015-Feb-26 10:33N 39°51' W 075°20'4 3.7
2015-Feb-26 09:31N 39°51' W 075°15'2 1.9
2015-Feb-26 08:31N 39°52' W 075°13'2 2.0
2015-Feb-26 07:31N 39°53' W 075°11'0 0.0
2015-Feb-26 05:31N 39°53' W 075°11'0 0.0
2015-Feb-26 04:31N 39°53' W 075°11'0 0.0
2015-Feb-26 03:22N 39°53' W 075°11'0 0.0
2015-Feb-26 02:31N 39°53' W 075°11'0 0.0
2015-Feb-26 01:31N 39°53' W 075°11'0 0.0
2015-Feb-26 00:31N 39°53' W 075°11'0 0.0
2015-Feb-25 23:31N 39°53' W 075°11'0 0.0
2015-Feb-25 22:31N 39°53' W 075°11'0 0.0
2015-Feb-25 21:31N 39°53' W 075°11'0 0.0
2015-Feb-25 20:31N 39°53' W 075°11'0 0.0
2015-Feb-25 19:31N 39°53' W 075°11'0 0.0
2015-Feb-25 18:31N 39°53' W 075°11'0 0.0
2015-Feb-25 17:31N 39°53' W 075°11'0 0.0
2015-Feb-25 16:31N 39°53' W 075°11'0 0.0
2015-Feb-25 15:28N 39°53' W 075°11'0 0.0
2015-Feb-25 14:31N 39°53' W 075°11'0 0.0
2015-Feb-25 13:31N 39°53' W 075°11'0 0.0
2015-Feb-25 12:31N 39°53' W 075°11'4 4.3
2015-Feb-25 11:34N 39°51' W 075°15'8 8.5
2015-Feb-25 10:33N 39°48' W 075°26'9 8.7
2015-Feb-25 09:34N 39°40' W 075°32'7 7.1
2015-Feb-25 08:34N 39°33' W 075°33'0 0.2
2015-Feb-25 07:32N 39°33' W 075°33'0 0.1
2015-Feb-25 06:32N 39°33' W 075°33'0 0.0
2015-Feb-25 05:32N 39°33' W 075°33'0 0.1
2015-Feb-25 04:32N 39°33' W 075°33'0 0.0
2015-Feb-25 03:32N 39°33' W 075°33'0 0.0
2015-Feb-25 02:32N 39°33' W 075°33'0 0.0
2015-Feb-25 01:32N 39°33' W 075°33'0 0.0
2015-Feb-25 00:32N 39°33' W 075°33'0 0.1
2015-Feb-24 23:32N 39°33' W 075°33'0 0.1
2015-Feb-24 22:33N 39°33' W 075°33'0 0.1
2015-Feb-24 21:32N 39°33' W 075°33'0 0.0
2015-Feb-24 20:32N 39°33' W 075°33'0 0.0
2015-Feb-24 19:32N 39°33' W 075°33'0 0.0
2015-Feb-24 18:32N 39°33' W 075°33'0 0.0
2015-Feb-24 17:33N 39°33' W 075°33'0 0.2
2015-Feb-24 16:32N 39°33' W 075°33'0 0.1
2015-Feb-24 15:32N 39°33' W 075°33'0 0.2
2015-Feb-24 14:33N 39°33' W 075°33'0 0.2
2015-Feb-24 13:33N 39°33' W 075°33'0 0.0
2015-Feb-24 12:33N 39°33' W 075°33'0 0.0
2015-Feb-24 11:33N 39°33' W 075°33'0 0.1
2015-Feb-24 10:30N 39°33' W 075°33'0 0.2
2015-Feb-24 09:33N 39°33' W 075°33'0 0.0
2015-Feb-24 08:33N 39°33' W 075°33'0 0.0
2015-Feb-24 07:33N 39°33' W 075°33'0 0.0
2015-Feb-24 06:33N 39°33' W 075°33'0 0.0
2015-Feb-24 05:33N 39°33' W 075°33'0 0.1
2015-Feb-24 04:33N 39°33' W 075°33'0 0.1
2015-Feb-24 03:33N 39°33' W 075°33'0 0.0
2015-Feb-24 02:33N 39°33' W 075°33'0 0.0
2015-Feb-24 01:33N 39°33' W 075°33'0 0.0
2015-Feb-24 00:33N 39°33' W 075°33'0 0.0
2015-Feb-23 23:30N 39°33' W 075°33'0 0.0
2015-Feb-23 22:33N 39°33' W 075°33'0 0.0
2015-Feb-23 21:33N 39°33' W 075°33'1 0.7
2015-Feb-23 20:33N 39°34' W 075°33'8 8.2
2015-Feb-23 19:33N 39°42' W 075°31'9 8.5
2015-Feb-23 18:33N 39°49' W 075°24'8 8.4
2015-Feb-23 17:33N 39°51' W 075°14'0 0.0
2015-Feb-23 16:33N 39°51' W 075°14'3 3.0
2015-Feb-23 15:34N 39°53' W 075°11'0 0.1
2015-Feb-23 14:33N 39°53' W 075°11'0 0.3
2015-Feb-23 13:33N 39°53' W 075°11'3 2.8
2015-Feb-23 12:33N 39°51' W 075°14'0 0.0
2015-Feb-23 11:33N 39°51' W 075°14'0 0.0
2015-Feb-23 10:33N 39°51' W 075°14'0 0.0
2015-Feb-23 09:33N 39°51' W 075°14'0 0.0
2015-Feb-23 08:33N 39°51' W 075°14'0 0.0
2015-Feb-23 07:33N 39°51' W 075°14'0 0.0
2015-Feb-23 06:34N 39°51' W 075°14'0 0.0
2015-Feb-23 05:33N 39°51' W 075°14'0 0.0
2015-Feb-23 04:33N 39°51' W 075°14'0 0.0
2015-Feb-23 03:33N 39°51' W 075°14'0 0.0
2015-Feb-23 02:33N 39°51' W 075°14'0 0.0
2015-Feb-23 01:33N 39°51' W 075°14'0 0.0
2015-Feb-23 00:34N 39°51' W 075°14'0 0.0
2015-Feb-22 23:33N 39°51' W 075°14'0 0.0
2015-Feb-22 22:33N 39°51' W 075°14'0 0.0
2015-Feb-22 21:33N 39°51' W 075°14'2 2.1
2015-Feb-22 20:33N 39°51' W 075°16'1010.0
2015-Feb-22 19:33N 39°46' W 075°28'1110.9
2015-Feb-22 18:34N 39°37' W 075°35'1110.9
2015-Feb-22 17:33N 39°26' W 075°32'1211.9
2015-Feb-22 16:33N 39°17' W 075°22'1111.4
2015-Feb-22 15:33N 39°08' W 075°13'1111.1
2015-Feb-22 14:33N 38°58' W 075°07'79 3.6
2015-Feb-21 16:33N 37°58' W 076°12'9 9.4
2015-Feb-21 15:33N 38°07' W 076°15'44 8.9
2015-Feb-21 10:33N 38°51' W 076°26'8 8.2
2015-Feb-21 09:32N 38°59' W 076°23'7 7.6
2015-Feb-21 08:33N 39°06' W 076°24'8 8.0
2015-Feb-21 07:33N 39°12' W 076°31'5 5.0
2015-Feb-21 06:33N 39°16' W 076°34'0 0.0
2015-Feb-21 05:33N 39°16' W 076°34'0 0.0
2015-Feb-21 04:33N 39°16' W 076°34'0 0.0
2015-Feb-21 03:34N 39°16' W 076°34'0 0.0
2015-Feb-21 02:33N 39°16' W 076°34'0 0.0
2015-Feb-21 01:33N 39°16' W 076°34'0 0.0
2015-Feb-21 00:33N 39°16' W 076°34'0 0.0
2015-Feb-20 23:33N 39°16' W 076°34'0 0.0
2015-Feb-20 22:33N 39°16' W 076°34'0 0.0
2015-Feb-20 21:33N 39°16' W 076°34'0 0.0
2015-Feb-20 20:33N 39°16' W 076°34'0 0.0
2015-Feb-20 19:33N 39°16' W 076°34'0 0.0
2015-Feb-20 18:33N 39°16' W 076°34'0 0.0
2015-Feb-20 17:31N 39°16' W 076°34'0 0.0
2015-Feb-20 16:33N 39°16' W 076°34'1 1.1
2015-Feb-20 15:33N 39°17' W 076°36'0 0.0
2015-Feb-20 14:33N 39°17' W 076°36'0 0.0
2015-Feb-20 13:33N 39°17' W 076°36'0 0.0
2015-Feb-20 12:33N 39°17' W 076°36'1 1.1
2015-Feb-20 11:33N 39°16' W 076°34'0 0.0
2015-Feb-20 10:34N 39°16' W 076°34'0 0.0
2015-Feb-20 09:33N 39°16' W 076°34'0 0.0
2015-Feb-20 08:34N 39°16' W 076°34'0 0.0
2015-Feb-20 07:33N 39°16' W 076°34'0 0.0
2015-Feb-20 06:33N 39°16' W 076°34'0 0.0
2015-Feb-20 05:34N 39°16' W 076°34'0 0.0
2015-Feb-20 04:33N 39°16' W 076°34'0 0.0
2015-Feb-20 03:33N 39°16' W 076°34'0 0.0
2015-Feb-20 02:33N 39°16' W 076°34'0 0.0
2015-Feb-20 01:33N 39°16' W 076°34'  

Dump ship's entire track history